Time;durP1;ratioP1;P1;durP2;ratioP2;P2;SDS_P1;SDS_P2;PMS_P1;PMS_P2;Temp;Humidity;BMP_temperature;BMP_pressure;BME280_temperature;BME280_humidity;BME280_pressure;Samples;Min_cycle;Max_cycle;Signal;HPM_P1;HPM_P2
2021/08/03 00:02:22;;;;;;;3.65;1.63;;;;;;;;;;4958076;28;20456;-88
2021/08/03 00:04:49;;;;;;;3.60;1.65;;;;;;;;;;4957491;28;20054;-87
2021/08/03 00:07:18;;;;;;;3.80;1.70;;;;;;;;;;4955978;28;20031;-88
2021/08/03 00:09:45;;;;;;;3.33;2.13;;;;;;;;;;4956506;28;20034;-88
2021/08/03 00:12:12;;;;;;;3.67;1.60;;;;;;;;;;4957171;28;20027;-88
2021/08/03 00:14:43;;;;;;;3.33;1.83;;;;;;;;;;4956986;28;20081;-88
2021/08/03 00:17:13;;;;;;;3.25;2.03;;;;;;;;;;4957067;28;20031;-87
2021/08/03 00:19:41;;;;;;;4.47;2.03;;;;;;;;;;4956943;28;20062;-86
2021/08/03 00:22:07;;;;;;;5.38;2.13;;;;;;;;;;4957095;28;20031;-88
2021/08/03 00:24:33;;;;;;;8.75;2.03;;;;;;;;;;4958651;28;20016;-88
2021/08/03 00:27:00;;;;;;;3.25;1.80;;;;;;;;;;4956070;28;20048;-88
2021/08/03 00:29:26;;;;;;;4.65;1.95;;;;;;;;;;4959040;28;20102;-88
2021/08/03 00:31:53;;;;;;;3.20;1.80;;;;;;;;;;4956697;28;20027;-88
2021/08/03 00:34:20;;;;;;;3.50;1.80;;;;;;;;;;4957071;28;20027;-87
2021/08/03 00:36:46;;;;;;;3.58;2.38;;;;;;;;;;4957984;28;20024;-88
2021/08/03 00:39:13;;;;;;;6.63;2.15;;;;;;;;;;4958583;28;20126;-89
2021/08/03 00:41:43;;;;;;;4.10;2.00;;;;;;;;;;4956138;28;20082;-88
2021/08/03 00:44:09;;;;;;;4.60;2.50;;;;;;;;;;4956687;28;20035;-89
2021/08/03 00:46:36;;;;;;;3.47;1.80;;;;;;;;;;4957776;28;20034;-88
2021/08/03 00:49:03;;;;;;;5.43;1.98;;;;;;;;;;4956469;28;20035;-89
2021/08/03 00:51:29;;;;;;;4.20;2.35;;;;;;;;;;4956441;28;20035;-89
2021/08/03 00:53:55;;;;;;;6.10;2.50;;;;;;;;;;4956504;28;20066;-89
2021/08/03 00:56:22;;;;;;;4.20;2.08;;;;;;;;;;4955637;28;20158;-88
2021/08/03 00:58:48;;;;;;;8.55;2.33;;;;;;;;;;4957750;28;20023;-88
2021/08/03 01:01:15;;;;;;;3.72;2.00;;;;;;;;;;4955881;28;20146;-88
2021/08/03 01:03:41;;;;;;;3.38;1.80;;;;;;;;;;4956283;28;20027;-89
2021/08/03 01:06:16;;;;;;;5.47;2.33;;;;;;;;;;4956733;28;20134;-87
2021/08/03 01:09:00;;;;;;;4.72;2.47;;;;;;;;;;4956012;28;20051;-88
2021/08/03 01:11:27;;;;;;;6.60;2.40;;;;;;;;;;4956201;28;20034;-88
2021/08/03 01:14:15;;;;;;;4.35;2.22;;;;;;;;;;4957427;28;20031;-88
2021/08/03 01:16:56;;;;;;;6.30;2.35;;;;;;;;;;4956001;28;20027;-88
2021/08/03 01:19:28;;;;;;;5.90;2.50;;;;;;;;;;4955912;28;20038;-88
2021/08/03 01:22:03;;;;;;;6.07;2.30;;;;;;;;;;4955971;28;20023;-88
2021/08/03 01:24:48;;;;;;;6.47;2.30;;;;;;;;;;4955897;28;20118;-87
2021/08/03 01:27:14;;;;;;;3.95;2.40;;;;;;;;;;4955848;28;20045;-88
2021/08/03 01:29:42;;;;;;;5.63;2.67;;;;;;;;;;4955676;28;20031;-87
2021/08/03 01:32:09;;;;;;;4.28;2.47;;;;;;;;;;4955275;28;20035;-88
2021/08/03 01:34:40;;;;;;;5.28;2.58;;;;;;;;;;4957844;28;20035;-89
2021/08/03 01:37:07;;;;;;;6.57;2.50;;;;;;;;;;4955264;28;20079;-88
2021/08/03 01:39:37;;;;;;;4.82;2.60;;;;;;;;;;4957551;28;20074;-89
2021/08/03 01:42:05;;;;;;;5.43;2.55;;;;;;;;;;4955717;28;20119;-89
2021/08/03 01:44:32;;;;;;;7.53;2.20;;;;;;;;;;4955356;28;20062;-88
2021/08/03 01:46:59;;;;;;;3.72;2.42;;;;;;;;;;4955615;28;20444;-88
2021/08/03 01:49:27;;;;;;;8.60;2.40;;;;;;;;;;4955316;28;20034;-88
2021/08/03 01:51:54;;;;;;;5.35;2.47;;;;;;;;;;4955722;28;20542;-88
2021/08/03 01:54:21;;;;;;;10.40;2.50;;;;;;;;;;4956859;28;20045;-88
2021/08/03 01:56:48;;;;;;;4.68;2.63;;;;;;;;;;4955474;28;20019;-88
2021/08/03 01:59:15;;;;;;;3.38;2.20;;;;;;;;;;4956867;28;20023;-89
2021/08/03 02:01:42;;;;;;;5.30;2.50;;;;;;;;;;4955644;28;20472;-88
2021/08/03 02:04:08;;;;;;;3.95;2.47;;;;;;;;;;4954918;28;20066;-89
2021/08/03 02:06:37;;;;;;;6.05;2.53;;;;;;;;;;4956323;28;20054;-89
2021/08/03 02:09:04;;;;;;;8.13;2.55;;;;;;;;;;4955970;28;20357;-87
2021/08/03 02:11:31;;;;;;;4.07;2.45;;;;;;;;;;4955312;28;20118;-88
2021/08/03 02:13:58;;;;;;;5.38;2.88;;;;;;;;;;4958906;28;20037;-89
2021/08/03 02:16:24;;;;;;;4.07;2.50;;;;;;;;;;4961054;28;20468;-88
2021/08/03 02:18:51;;;;;;;4.90;2.47;;;;;;;;;;4960141;28;20389;-88
2021/08/03 02:21:18;;;;;;;6.95;2.63;;;;;;;;;;4958935;28;20050;-89
2021/08/03 02:23:44;;;;;;;4.40;2.10;;;;;;;;;;4959634;28;20556;-88
2021/08/03 02:26:11;;;;;;;3.47;2.20;;;;;;;;;;4959833;28;20051;-88
2021/08/03 02:28:38;;;;;;;8.48;2.50;;;;;;;;;;4960946;28;20074;-87
2021/08/03 02:31:24;;;;;;;6.50;1.92;;;;;;;;;;4958822;28;20033;-88
2021/08/03 02:33:56;;;;;;;7.53;2.55;;;;;;;;;;4951957;29;20515;-88
2021/08/03 02:36:24;;;;;;;7.40;2.13;;;;;;;;;;4964975;28;20015;-89
2021/08/03 02:38:53;;;;;;;2.33;1.52;;;;;;;;;;4958960;28;20412;-87
2021/08/03 02:41:20;;;;;;;8.38;2.53;;;;;;;;;;4959334;28;20027;-88
2021/08/03 02:43:46;;;;;;;4.85;2.08;;;;;;;;;;4960748;28;20516;-89
2021/08/03 02:46:15;;;;;;;3.67;2.10;;;;;;;;;;4958910;28;20019;-89
2021/08/03 02:48:41;;;;;;;6.72;1.95;;;;;;;;;;4958886;28;20073;-88
2021/08/03 02:51:08;;;;;;;3.72;2.00;;;;;;;;;;4958791;28;20034;-88
2021/08/03 02:53:44;;;;;;;7.20;2.20;;;;;;;;;;4958709;28;20058;-88
2021/08/03 02:56:12;;;;;;;4.32;1.88;;;;;;;;;;4959672;28;20079;-88
2021/08/03 02:58:58;;;;;;;3.38;1.70;;;;;;;;;;4958414;28;20121;-88
2021/08/03 03:01:26;;;;;;;3.30;2.03;;;;;;;;;;4958677;28;20404;-88
2021/08/03 03:03:54;;;;;;;4.53;2.20;;;;;;;;;;4957774;28;20039;-88
2021/08/03 03:06:21;;;;;;;3.20;2.17;;;;;;;;;;4958265;28;20090;-88
2021/08/03 03:08:48;;;;;;;5.63;2.13;;;;;;;;;;4959984;28;20476;-88
2021/08/03 03:11:17;;;;;;;4.28;2.08;;;;;;;;;;4958058;28;20491;-88
2021/08/03 03:14:00;;;;;;;3.83;2.50;;;;;;;;;;4958050;28;20027;-88
2021/08/03 03:16:27;;;;;;;3.63;2.25;;;;;;;;;;4958685;28;20047;-87
2021/08/03 03:18:55;;;;;;;5.38;1.90;;;;;;;;;;4957965;28;20055;-88
2021/08/03 03:21:22;;;;;;;3.20;1.83;;;;;;;;;;4958229;28;20515;-88
2021/08/03 03:23:49;;;;;;;5.38;2.17;;;;;;;;;;4956884;28;20059;-89
2021/08/03 03:26:16;;;;;;;3.28;2.08;;;;;;;;;;4958188;28;20030;-88
2021/08/03 03:28:43;;;;;;;7.30;2.05;;;;;;;;;;4959113;28;20037;-89
2021/08/03 03:31:10;;;;;;;6.30;2.00;;;;;;;;;;4959753;28;20089;-88
2021/08/03 03:33:38;;;;;;;3.28;1.90;;;;;;;;;;4959284;28;20097;-88
2021/08/03 03:36:06;;;;;;;4.32;1.70;;;;;;;;;;4959420;28;20027;-87
2021/08/03 03:38:33;;;;;;;4.07;1.75;;;;;;;;;;4957750;28;20114;-88
2021/08/03 03:41:00;;;;;;;3.53;1.85;;;;;;;;;;4958338;28;20061;-88
2021/08/03 03:43:28;;;;;;;5.45;2.13;;;;;;;;;;4958980;28;20035;-87
2021/08/03 03:45:57;;;;;;;3.83;1.92;;;;;;;;;;4957746;28;20037;-88
2021/08/03 03:48:26;;;;;;;2.72;1.70;;;;;;;;;;4957536;28;20042;-87
2021/08/03 03:50:59;;;;;;;5.03;2.05;;;;;;;;;;4959297;28;20474;-88
2021/08/03 03:53:29;;;;;;;6.50;2.20;;;;;;;;;;4957654;28;20022;-88
2021/08/03 03:55:58;;;;;;;3.35;1.73;;;;;;;;;;4957726;28;20556;-88
2021/08/03 03:58:25;;;;;;;5.65;2.35;;;;;;;;;;4958545;28;20027;-88
2021/08/03 04:00:52;;;;;;;7.80;2.65;;;;;;;;;;4956826;28;20074;-89
2021/08/03 04:03:20;;;;;;;6.07;2.20;;;;;;;;;;4957350;28;20027;-88
2021/08/03 04:05:48;;;;;;;4.18;2.30;;;;;;;;;;4957640;28;20031;-88
2021/08/03 04:08:14;;;;;;;6.13;2.13;;;;;;;;;;4957385;28;20090;-88
2021/08/03 04:10:41;;;;;;;2.85;1.88;;;;;;;;;;4958401;28;20020;-88
2021/08/03 04:13:07;;;;;;;2.80;1.85;;;;;;;;;;4957905;28;20027;-88
2021/08/03 04:15:34;;;;;;;7.80;2.40;;;;;;;;;;4954947;28;20026;-88
2021/08/03 04:18:00;;;;;;;3.38;1.73;;;;;;;;;;4955419;28;20031;-87
2021/08/03 04:20:26;;;;;;;3.63;1.83;;;;;;;;;;4957620;29;20047;-88
2021/08/03 04:22:53;;;;;;;2.78;1.70;;;;;;;;;;4957178;28;20031;-89
2021/08/03 04:25:19;;;;;;;5.38;2.20;;;;;;;;;;4955637;28;20041;-86
2021/08/03 04:27:45;;;;;;;6.80;2.38;;;;;;;;;;4956841;28;20031;-87
2021/08/03 04:30:12;;;;;;;3.47;2.50;;;;;;;;;;4957173;28;20035;-87
2021/08/03 04:32:39;;;;;;;5.78;1.80;;;;;;;;;;4955494;28;20027;-86
2021/08/03 04:35:05;;;;;;;3.63;1.92;;;;;;;;;;4955320;28;20023;-86
2021/08/03 04:37:57;;;;;;;3.28;2.03;;;;;;;;;;4955961;28;20110;-88
2021/08/03 04:40:24;;;;;;;3.67;1.90;;;;;;;;;;4956396;28;20031;-89
2021/08/03 04:42:51;;;;;;;3.03;1.83;;;;;;;;;;4953936;28;20070;-86
2021/08/03 04:45:17;;;;;;;3.80;1.67;;;;;;;;;;4955322;28;20082;-85
2021/08/03 04:47:44;;;;;;;6.00;1.60;;;;;;;;;;4953853;28;20039;-86
2021/08/03 04:50:15;;;;;;;5.18;1.60;;;;;;;;;;4955183;28;20078;-89
2021/08/03 04:52:41;;;;;;;4.80;1.55;;;;;;;;;;4954147;28;20457;-86
2021/08/03 04:55:08;;;;;;;2.45;1.30;;;;;;;;;;4954782;28;20448;-86
2021/08/03 04:57:34;;;;;;;2.80;1.30;;;;;;;;;;4954840;29;20039;-87
2021/08/03 05:00:00;;;;;;;5.32;1.20;;;;;;;;;;4953604;28;20019;-87
2021/08/03 05:02:26;;;;;;;2.10;1.20;;;;;;;;;;4953887;28;20086;-87
2021/08/03 05:04:52;;;;;;;2.10;0.93;;;;;;;;;;4953705;28;20023;-87
2021/08/03 05:07:18;;;;;;;4.47;1.15;;;;;;;;;;4955020;28;20039;-85
2021/08/03 05:09:45;;;;;;;5.25;0.90;;;;;;;;;;4955064;29;20496;-88
2021/08/03 05:12:11;;;;;;;2.58;1.00;;;;;;;;;;4955472;28;20484;-89
2021/08/03 05:14:37;;;;;;;2.00;0.85;;;;;;;;;;4955416;28;20752;-90
2021/08/03 05:17:03;;;;;;;1.85;0.80;;;;;;;;;;4956229;28;20118;-89
2021/08/03 05:19:29;;;;;;;2.72;0.98;;;;;;;;;;4953669;28;20039;-84
2021/08/03 05:21:56;;;;;;;2.35;1.10;;;;;;;;;;4954040;28;20117;-89
2021/08/03 05:24:25;;;;;;;2.38;1.00;;;;;;;;;;4955586;29;20497;-88
2021/08/03 05:27:00;;;;;;;1.80;0.88;;;;;;;;;;4955489;28;20409;-87
2021/08/03 05:29:27;;;;;;;2.88;1.20;;;;;;;;;;4956602;28;20023;-90
2021/08/03 05:31:54;;;;;;;2.83;1.00;;;;;;;;;;4956075;28;20039;-89
2021/08/03 05:34:20;;;;;;;4.70;1.08;;;;;;;;;;4955904;28;20083;-89
2021/08/03 05:36:46;;;;;;;2.22;0.90;;;;;;;;;;4956735;28;20495;-88
2021/08/03 05:39:12;;;;;;;1.98;1.00;;;;;;;;;;4956743;28;20023;-91
2021/08/03 05:41:38;;;;;;;3.83;0.93;;;;;;;;;;4959231;28;20028;-91
2021/08/03 05:44:05;;;;;;;2.78;0.90;;;;;;;;;;4965831;28;20020;-88
2021/08/03 05:46:31;;;;;;;2.03;0.98;;;;;;;;;;4956132;28;20476;-85
2021/08/03 05:48:58;;;;;;;2.28;1.10;;;;;;;;;;4955396;28;20039;-87
2021/08/03 05:51:24;;;;;;;2.72;1.23;;;;;;;;;;4954822;28;20031;-91
2021/08/03 05:53:50;;;;;;;3.25;1.38;;;;;;;;;;4955636;28;20035;-88
2021/08/03 05:56:16;;;;;;;2.33;1.02;;;;;;;;;;4955759;28;20078;-88
2021/08/03 05:58:43;;;;;;;2.38;1.35;;;;;;;;;;4956167;28;20078;-90
2021/08/03 06:01:09;;;;;;;4.07;1.52;;;;;;;;;;4955534;28;20035;-89
2021/08/03 06:03:35;;;;;;;4.10;1.50;;;;;;;;;;4955749;28;20024;-87
2021/08/03 06:06:02;;;;;;;2.65;1.10;;;;;;;;;;4954520;28;20046;-88
2021/08/03 06:08:31;;;;;;;2.75;1.20;;;;;;;;;;4955560;28;20042;-83
2021/08/03 06:10:58;;;;;;;3.53;1.00;;;;;;;;;;4954624;28;20472;-90
2021/08/03 06:13:27;;;;;;;1.88;0.90;;;;;;;;;;4955284;29;20090;-86
2021/08/03 06:15:54;;;;;;;2.45;1.10;;;;;;;;;;4954567;28;20032;-86
2021/08/03 06:18:29;;;;;;;3.60;1.02;;;;;;;;;;4955724;28;20488;-87
2021/08/03 06:20:56;;;;;;;5.90;0.95;;;;;;;;;;4956516;28;20031;-87
2021/08/03 06:23:23;;;;;;;1.75;0.90;;;;;;;;;;4955695;28;20031;-87
2021/08/03 06:25:50;;;;;;;1.85;1.05;;;;;;;;;;4954848;28;20023;-90
2021/08/03 06:28:17;;;;;;;1.70;0.95;;;;;;;;;;4956365;28;20131;-90
2021/08/03 06:30:44;;;;;;;2.33;1.10;;;;;;;;;;4955910;28;20587;-91
2021/08/03 06:33:10;;;;;;;3.53;1.20;;;;;;;;;;4955071;28;20547;-90
2021/08/03 06:35:37;;;;;;;1.70;0.82;;;;;;;;;;4954907;28;20035;-89
2021/08/03 06:38:03;;;;;;;2.15;1.08;;;;;;;;;;4956301;28;20051;-91
2021/08/03 06:40:30;;;;;;;3.55;1.00;;;;;;;;;;4954420;28;20027;-88
2021/08/03 06:43:03;;;;;;;1.95;1.10;;;;;;;;;;4956189;28;20075;-90
2021/08/03 06:45:30;;;;;;;1.80;0.95;;;;;;;;;;4956454;28;20394;-89
2021/08/03 06:48:03;;;;;;;2.80;0.90;;;;;;;;;;4954789;28;20122;-89
2021/08/03 06:50:33;;;;;;;4.50;1.00;;;;;;;;;;4955277;28;20032;-90
2021/08/03 06:53:00;;;;;;;2.50;1.02;;;;;;;;;;4955434;28;20077;-90
2021/08/03 06:55:30;;;;;;;2.85;1.08;;;;;;;;;;4956997;28;20083;-90
2021/08/03 06:57:59;;;;;;;2.28;1.10;;;;;;;;;;4956188;28;20031;-91
2021/08/03 07:00:26;;;;;;;1.73;0.77;;;;;;;;;;4956690;28;20110;-89
2021/08/03 07:02:53;;;;;;;1.55;0.88;;;;;;;;;;4959206;28;20035;-91
2021/08/03 07:05:20;;;;;;;3.05;0.90;;;;;;;;;;4958169;28;20027;-91
2021/08/03 07:07:47;;;;;;;2.17;0.82;;;;;;;;;;4958503;28;20039;-89
2021/08/03 07:10:14;;;;;;;2.95;0.80;;;;;;;;;;4959707;28;20023;-89
2021/08/03 07:12:44;;;;;;;4.25;1.10;;;;;;;;;;4957954;28;20031;-89
2021/08/03 07:15:11;;;;;;;1.70;0.90;;;;;;;;;;4957638;28;20031;-90
2021/08/03 07:17:38;;;;;;;2.33;1.08;;;;;;;;;;4959472;28;20163;-89
2021/08/03 07:20:05;;;;;;;1.95;0.90;;;;;;;;;;4959205;28;20058;-88
2021/08/03 07:22:34;;;;;;;5.72;1.08;;;;;;;;;;4957401;28;20492;-88
2021/08/03 07:25:02;;;;;;;1.60;1.00;;;;;;;;;;4957871;28;20504;-88
2021/08/03 07:27:28;;;;;;;2.97;1.13;;;;;;;;;;4958724;28;20071;-87
2021/08/03 07:29:54;;;;;;;9.95;1.23;;;;;;;;;;4957064;28;20042;-87
2021/08/03 07:32:21;;;;;;;1.63;1.00;;;;;;;;;;4957295;28;20086;-87
2021/08/03 07:34:47;;;;;;;2.28;0.90;;;;;;;;;;4959075;28;20531;-87
2021/08/03 07:37:14;;;;;;;2.30;1.13;;;;;;;;;;4958942;28;20019;-87
2021/08/03 07:39:40;;;;;;;3.65;1.35;;;;;;;;;;4958392;28;20035;-87
2021/08/03 07:42:08;;;;;;;2.13;1.15;;;;;;;;;;4956782;28;20027;-87
2021/08/03 07:44:35;;;;;;;3.72;1.30;;;;;;;;;;4957543;28;20066;-87
2021/08/03 07:47:02;;;;;;;3.25;1.08;;;;;;;;;;4956518;28;20023;-87
2021/08/03 07:49:28;;;;;;;5.15;0.93;;;;;;;;;;4957194;28;20424;-87
2021/08/03 07:51:55;;;;;;;4.75;1.33;;;;;;;;;;4956888;28;20027;-88
2021/08/03 07:54:21;;;;;;;2.35;1.10;;;;;;;;;;4957105;28;20050;-88
2021/08/03 07:56:48;;;;;;;3.72;1.15;;;;;;;;;;4958601;28;20023;-88
2021/08/03 07:59:14;;;;;;;4.55;1.00;;;;;;;;;;4956696;28;20035;-88
2021/08/03 08:01:40;;;;;;;3.33;1.10;;;;;;;;;;4956323;28;20396;-88
2021/08/03 08:04:07;;;;;;;2.97;1.00;;;;;;;;;;4957960;28;20095;-89
2021/08/03 08:06:33;;;;;;;7.05;1.10;;;;;;;;;;4958177;28;20146;-88
2021/08/03 08:08:59;;;;;;;2.55;1.13;;;;;;;;;;4956659;28;20039;-88
2021/08/03 08:11:26;;;;;;;2.10;1.00;;;;;;;;;;4956627;28;20490;-88
2021/08/03 08:13:52;;;;;;;2.47;1.15;;;;;;;;;;4958853;28;20035;-88
2021/08/03 08:16:18;;;;;;;1.85;0.98;;;;;;;;;;4956741;28;20408;-90
2021/08/03 08:18:44;;;;;;;1.77;0.98;;;;;;;;;;4956892;28;20031;-89
2021/08/03 08:21:11;;;;;;;1.52;0.95;;;;;;;;;;4956839;28;20031;-90
2021/08/03 08:23:37;;;;;;;2.60;1.10;;;;;;;;;;4957159;28;20118;-89
2021/08/03 08:26:04;;;;;;;4.43;1.10;;;;;;;;;;4956812;28;20047;-89
2021/08/03 08:28:30;;;;;;;3.67;0.95;;;;;;;;;;4956262;28;20464;-88
2021/08/03 08:30:57;;;;;;;4.20;1.27;;;;;;;;;;4955873;28;20050;-89
2021/08/03 08:33:24;;;;;;;2.05;0.90;;;;;;;;;;4956769;28;20035;-89
2021/08/03 08:35:50;;;;;;;2.17;0.95;;;;;;;;;;4958067;28;20035;-89
2021/08/03 08:38:17;;;;;;;2.78;1.00;;;;;;;;;;4956738;28;20042;-88
2021/08/03 08:40:43;;;;;;;2.33;1.20;;;;;;;;;;4957221;28;20499;-88
2021/08/03 08:43:14;;;;;;;3.47;1.20;;;;;;;;;;4955879;28;20031;-86
2021/08/03 08:45:42;;;;;;;2.78;1.48;;;;;;;;;;4955656;28;20023;-89
2021/08/03 08:48:10;;;;;;;1.75;1.10;;;;;;;;;;4957130;28;20135;-88
2021/08/03 08:50:36;;;;;;;6.63;1.10;;;;;;;;;;4956286;28;20027;-87
2021/08/03 08:53:02;;;;;;;3.25;0.93;;;;;;;;;;4956652;28;20036;-87
2021/08/03 08:55:28;;;;;;;5.18;1.20;;;;;;;;;;4958087;28;20099;-87
2021/08/03 08:57:54;;;;;;;3.58;0.90;;;;;;;;;;4955509;29;20054;-87
2021/08/03 09:00:22;;;;;;;2.80;1.02;;;;;;;;;;4955072;28;20038;-87
2021/08/03 09:02:51;;;;;;;1.65;0.95;;;;;;;;;;4955412;28;20027;-88
2021/08/03 09:05:25;;;;;;;1.80;0.90;;;;;;;;;;4955423;28;20031;-87
2021/08/03 09:07:53;;;;;;;1.67;0.82;;;;;;;;;;4956740;28;20039;-87
2021/08/03 09:10:34;;;;;;;1.95;0.57;;;;;;;;;;4955708;28;20031;-89
2021/08/03 09:13:11;;;;;;;3.55;0.90;;;;;;;;;;4955926;28;20042;-88
2021/08/03 09:15:42;;;;;;;1.88;0.90;;;;;;;;;;4955103;28;20031;-87
2021/08/03 09:18:26;;;;;;;1.27;0.70;;;;;;;;;;4956681;28;20070;-88
2021/08/03 09:20:53;;;;;;;2.00;0.80;;;;;;;;;;4955904;28;20582;-88
2021/08/03 09:23:19;;;;;;;1.65;0.88;;;;;;;;;;4955761;28;20507;-88
2021/08/03 09:26:12;;;;;;;1.77;0.70;;;;;;;;;;4956265;28;20075;-88
2021/08/03 09:28:57;;;;;;;1.45;0.90;;;;;;;;;;4953423;29;20047;-87
2021/08/03 09:31:23;;;;;;;4.15;0.93;;;;;;;;;;4960500;28;20027;-89
2021/08/03 09:33:50;;;;;;;1.77;0.90;;;;;;;;;;4956262;28;20607;-87
2021/08/03 09:36:16;;;;;;;2.05;1.08;;;;;;;;;;4954421;28;20400;-87
2021/08/03 09:38:42;;;;;;;2.40;1.15;;;;;;;;;;4955217;28;20035;-87
2021/08/03 09:41:09;;;;;;;2.17;1.00;;;;;;;;;;4956269;28;20019;-88
2021/08/03 09:43:36;;;;;;;2.80;1.38;;;;;;;;;;4956302;28;20061;-88
2021/08/03 09:46:03;;;;;;;3.17;1.23;;;;;;;;;;4955185;28;20027;-88
2021/08/03 09:48:30;;;;;;;3.78;1.50;;;;;;;;;;4955953;28;20035;-86
2021/08/03 09:51:01;;;;;;;1.90;0.90;;;;;;;;;;4954469;28;20027;-88
2021/08/03 09:53:35;;;;;;;2.95;1.00;;;;;;;;;;4954731;28;20058;-87
2021/08/03 09:56:01;;;;;;;1.67;0.80;;;;;;;;;;4955353;28;20373;-87
2021/08/03 09:58:27;;;;;;;3.78;0.90;;;;;;;;;;4956325;28;20023;-87
2021/08/03 10:00:53;;;;;;;2.58;0.95;;;;;;;;;;4954381;28;20388;-89
2021/08/03 10:03:20;;;;;;;2.47;0.68;;;;;;;;;;4954860;28;20400;-89
2021/08/03 10:05:47;;;;;;;3.70;0.98;;;;;;;;;;4954491;28;20439;-87
2021/08/03 10:08:13;;;;;;;3.58;0.90;;;;;;;;;;4956281;28;20035;-88
2021/08/03 10:10:40;;;;;;;2.47;1.13;;;;;;;;;;4955080;28;20027;-88
2021/08/03 10:13:06;;;;;;;1.55;0.88;;;;;;;;;;4954805;28;20032;-88
2021/08/03 10:15:32;;;;;;;4.13;0.80;;;;;;;;;;4954620;28;20130;-88
2021/08/03 10:17:59;;;;;;;1.90;0.85;;;;;;;;;;4955149;28;20038;-87
2021/08/03 10:20:25;;;;;;;1.45;0.82;;;;;;;;;;4954580;28;20073;-87
2021/08/03 10:23:05;;;;;;;2.03;0.73;;;;;;;;;;4954972;28;20078;-91
2021/08/03 10:25:33;;;;;;;1.10;0.70;;;;;;;;;;4954585;28;20508;-87
2021/08/03 10:28:16;;;;;;;1.73;0.88;;;;;;;;;;4955135;28;20488;-90
2021/08/03 10:30:43;;;;;;;1.38;0.80;;;;;;;;;;4954919;28;20043;-87
2021/08/03 10:33:29;;;;;;;2.33;0.85;;;;;;;;;;4956689;28;20114;-87
2021/08/03 10:35:58;;;;;;;2.17;1.00;;;;;;;;;;4958612;28;20074;-87
2021/08/03 10:38:28;;;;;;;3.72;1.33;;;;;;;;;;4957968;28;20079;-90
2021/08/03 10:41:08;;;;;;;2.80;0.88;;;;;;;;;;4958873;28;20487;-88
2021/08/03 10:43:34;;;;;;;1.58;0.73;;;;;;;;;;4958522;28;20042;-90
2021/08/03 10:46:06;;;;;;;2.83;0.80;;;;;;;;;;4959932;28;20118;-88
2021/08/03 10:48:39;;;;;;;2.80;0.90;;;;;;;;;;4958324;28;20034;-87
2021/08/03 10:51:17;;;;;;;3.35;0.93;;;;;;;;;;4958599;28;20037;-88
2021/08/03 10:53:52;;;;;;;3.92;0.88;;;;;;;;;;4958724;28;20484;-88
2021/08/03 10:56:19;;;;;;;2.88;1.10;;;;;;;;;;4958245;28;20031;-87
2021/08/03 10:58:45;;;;;;;2.67;0.95;;;;;;;;;;4959261;28;20030;-88
2021/08/03 11:01:12;;;;;;;5.85;0.93;;;;;;;;;;4958024;28;20034;-87
2021/08/03 11:03:38;;;;;;;2.88;1.30;;;;;;;;;;4958285;28;20031;-90
2021/08/03 11:06:04;;;;;;;2.22;1.00;;;;;;;;;;4958230;28;20046;-88
2021/08/03 11:08:31;;;;;;;2.35;0.80;;;;;;;;;;4959398;28;20046;-89
2021/08/03 11:11:05;;;;;;;2.95;1.08;;;;;;;;;;4958093;28;20030;-85
2021/08/03 11:13:50;;;;;;;1.98;0.98;;;;;;;;;;4957521;28;20046;-88
2021/08/03 11:16:19;;;;;;;2.60;1.02;;;;;;;;;;4957377;28;20377;-87
2021/08/03 11:18:46;;;;;;;2.08;0.90;;;;;;;;;;4958818;28;20028;-88
2021/08/03 11:21:16;;;;;;;2.70;1.30;;;;;;;;;;4958382;28;20031;-85
2021/08/03 11:24:09;;;;;;;1.70;1.10;;;;;;;;;;4965792;28;20031;-88
2021/08/03 11:26:51;;;;;;;2.03;1.10;;;;;;;;;;4974237;28;20058;-86
2021/08/03 11:29:17;;;;;;;;;;;;;;;;;;4957469;28;20337;-87
2021/08/03 11:31:57;;;;;;;3.33;1.15;;;;;;;;;;4958748;29;19906;-88
2021/08/03 11:34:28;;;;;;;7.18;1.17;;;;;;;;;;4957405;28;20027;-89
2021/08/03 11:37:02;;;;;;;3.45;1.17;;;;;;;;;;4957722;28;20027;-87
2021/08/03 11:39:45;;;;;;;3.30;1.27;;;;;;;;;;4957935;28;20027;-88
2021/08/03 11:42:12;;;;;;;4.25;1.45;;;;;;;;;;4957447;28;20033;-88
2021/08/03 11:44:39;;;;;;;2.10;1.00;;;;;;;;;;4958304;28;20114;-85
2021/08/03 11:47:10;;;;;;;2.50;1.10;;;;;;;;;;4958068;28;20118;-85
2021/08/03 11:49:38;;;;;;;2.42;0.90;;;;;;;;;;4957244;28;20039;-85
2021/08/03 11:52:08;;;;;;;4.20;1.15;;;;;;;;;;4957485;28;20024;-86
2021/08/03 11:54:35;;;;;;;1.45;0.73;;;;;;;;;;4957243;28;20031;-87
2021/08/03 11:57:01;;;;;;;2.55;1.00;;;;;;;;;;4957475;28;20031;-86
2021/08/03 11:59:31;;;;;;;2.10;0.85;;;;;;;;;;4957345;28;20035;-88
2021/08/03 12:01:57;;;;;;;1.20;0.50;;;;;;;;;;4956956;28;20023;-87
2021/08/03 12:04:23;;;;;;;3.50;1.63;;;;;;;;;;4957309;28;20527;-87
2021/08/03 12:06:53;;;;;;;2.40;0.90;;;;;;;;;;4956769;28;20028;-87
2021/08/03 12:09:20;;;;;;;1.63;0.82;;;;;;;;;;4956679;28;20134;-88
2021/08/03 12:11:46;;;;;;;1.58;0.63;;;;;;;;;;4957622;28;20027;-87
2021/08/03 12:14:15;;;;;;;2.28;0.85;;;;;;;;;;4957805;28;20154;-88
2021/08/03 12:16:45;;;;;;;1.92;0.70;;;;;;;;;;4955996;28;20054;-86
2021/08/03 12:19:31;;;;;;;3.00;0.80;;;;;;;;;;4955960;28;20039;-87
2021/08/03 12:21:57;;;;;;;1.88;0.85;;;;;;;;;;4958717;28;20036;-87
2021/08/03 12:24:23;;;;;;;1.73;0.90;;;;;;;;;;4956166;28;20070;-88
2021/08/03 12:27:08;;;;;;;3.20;0.85;;;;;;;;;;4956555;28;20027;-87
2021/08/03 12:29:35;;;;;;;1.27;0.70;;;;;;;;;;4956113;28;20118;-88
2021/08/03 12:32:01;;;;;;;4.53;0.90;;;;;;;;;;4955906;28;20038;-89
2021/08/03 12:34:34;;;;;;;1.33;0.57;;;;;;;;;;4956395;28;20370;-87
2021/08/03 12:37:01;;;;;;;1.23;0.60;;;;;;;;;;4956403;28;20034;-87
2021/08/03 12:39:41;;;;;;;2.85;0.98;;;;;;;;;;4956261;28;20032;-88
2021/08/03 12:44:53;;;;;;;2.50;0.57;;;;;;;;;;4958476;28;20032;-86
2021/08/03 12:47:21;;;;;;;2.03;0.73;;;;;;;;;;4957101;28;20534;-87
2021/08/03 12:49:48;;;;;;;1.80;0.90;;;;;;;;;;4955701;28;20035;-86
2021/08/03 12:52:16;;;;;;;4.00;0.85;;;;;;;;;;4956693;28;20485;-86
2021/08/03 12:54:44;;;;;;;3.70;0.90;;;;;;;;;;4955439;28;20023;-88
2021/08/03 12:57:10;;;;;;;1.92;0.90;;;;;;;;;;4955692;28;20054;-91
2021/08/03 12:59:39;;;;;;;3.35;0.85;;;;;;;;;;4955986;28;20389;-89
2021/08/03 13:02:05;;;;;;;2.10;0.80;;;;;;;;;;4955782;28;20026;-90
2021/08/03 13:04:32;;;;;;;2.17;0.65;;;;;;;;;;4955603;28;20407;-89
2021/08/03 13:07:02;;;;;;;2.08;0.77;;;;;;;;;;4955782;28;20051;-88
2021/08/03 13:09:28;;;;;;;1.13;0.50;;;;;;;;;;4956236;28;20476;-86
2021/08/03 13:11:55;;;;;;;2.17;0.60;;;;;;;;;;4955583;28;20086;-86
2021/08/03 13:14:21;;;;;;;0.98;0.52;;;;;;;;;;4956366;28;20039;-86
2021/08/03 13:16:47;;;;;;;3.08;0.80;;;;;;;;;;4959555;28;20023;-87
2021/08/03 13:19:13;;;;;;;1.88;0.35;;;;;;;;;;4970707;28;20051;-86
2021/08/03 13:21:40;;;;;;;1.40;0.50;;;;;;;;;;4956661;28;20078;-85
2021/08/03 13:24:06;;;;;;;2.08;0.68;;;;;;;;;;4956895;28;20024;-86
2021/08/03 13:26:32;;;;;;;1.95;0.57;;;;;;;;;;4956130;28;20110;-88
2021/08/03 13:29:02;;;;;;;3.58;1.00;;;;;;;;;;4956032;28;20082;-90
2021/08/03 13:31:28;;;;;;;2.17;0.70;;;;;;;;;;4955410;28;20047;-86
2021/08/03 13:33:54;;;;;;;2.40;0.85;;;;;;;;;;4954921;28;20039;-89
2021/08/03 13:36:21;;;;;;;4.25;1.27;;;;;;;;;;4955077;28;20114;-86
2021/08/03 13:38:47;;;;;;;1.60;0.70;;;;;;;;;;4956643;28;20035;-85
2021/08/03 13:41:14;;;;;;;2.30;0.70;;;;;;;;;;4955679;28;20396;-87
2021/08/03 13:43:41;;;;;;;2.53;0.90;;;;;;;;;;4956911;28;20050;-87
2021/08/03 13:46:07;;;;;;;1.75;0.80;;;;;;;;;;4955258;28;20031;-86
2021/08/03 13:48:33;;;;;;;1.25;0.63;;;;;;;;;;4956034;28;20035;-85
2021/08/03 13:51:00;;;;;;;4.93;0.80;;;;;;;;;;4956527;28;20033;-86
2021/08/03 13:53:26;;;;;;;1.30;0.52;;;;;;;;;;4955373;28;20440;-87
2021/08/03 13:55:53;;;;;;;1.27;0.68;;;;;;;;;;4954623;28;20037;-86
2021/08/03 13:58:19;;;;;;;2.58;0.75;;;;;;;;;;4958327;28;20082;-87
2021/08/03 14:00:45;;;;;;;1.98;0.70;;;;;;;;;;4961025;28;20102;-85
2021/08/03 14:03:12;;;;;;;1.52;0.73;;;;;;;;;;4956698;28;20035;-86
2021/08/03 14:05:39;;;;;;;7.82;0.80;;;;;;;;;;4956852;28;20043;-87
2021/08/03 14:08:06;;;;;;;1.33;0.70;;;;;;;;;;4958047;28;20035;-87
2021/08/03 14:10:32;;;;;;;3.58;0.77;;;;;;;;;;4959862;28;20019;-86
2021/08/03 14:12:58;;;;;;;1.45;0.85;;;;;;;;;;4958406;28;20065;-88
2021/08/03 14:15:24;;;;;;;2.08;0.70;;;;;;;;;;4958534;28;20388;-88
2021/08/03 14:17:50;;;;;;;5.32;0.75;;;;;;;;;;4958601;28;20039;-87
2021/08/03 14:20:17;;;;;;;5.28;0.65;;;;;;;;;;4958800;28;20106;-86
2021/08/03 14:22:43;;;;;;;1.35;0.50;;;;;;;;;;4959900;28;20027;-88
2021/08/03 14:25:10;;;;;;;1.90;0.65;;;;;;;;;;4958681;28;20034;-89
2021/08/03 14:27:36;;;;;;;1.45;0.70;;;;;;;;;;4961446;28;20063;-87
2021/08/03 14:30:04;;;;;;;1.55;0.70;;;;;;;;;;4958174;28;20031;-87
2021/08/03 14:32:33;;;;;;;1.30;0.60;;;;;;;;;;4958868;28;20055;-87
2021/08/03 14:34:59;;;;;;;2.78;0.80;;;;;;;;;;4958813;28;20008;-88
2021/08/03 14:37:25;;;;;;;1.20;0.68;;;;;;;;;;4959825;28;20065;-87
2021/08/03 14:39:51;;;;;;;2.15;0.70;;;;;;;;;;4957994;28;20027;-87
2021/08/03 14:42:18;;;;;;;2.75;0.70;;;;;;;;;;4958783;28;20031;-87
2021/08/03 14:44:44;;;;;;;5.15;0.80;;;;;;;;;;4958280;28;20023;-86
2021/08/03 14:47:10;;;;;;;2.67;0.65;;;;;;;;;;4958797;28;20369;-87
2021/08/03 14:49:36;;;;;;;1.98;0.82;;;;;;;;;;4958344;28;20078;-88
2021/08/03 14:52:02;;;;;;;2.35;0.70;;;;;;;;;;4959217;28;20023;-88
2021/08/03 14:54:28;;;;;;;1.50;0.75;;;;;;;;;;4959422;28;20064;-87